Time;durP1;ratioP1;P1;durP2;ratioP2;P2;SDS_P1;SDS_P2;PMS_P1;PMS_P2;Temp;Humidity;BMP_temperature;BMP_pressure;BME280_temperature;BME280_humidity;BME280_pressure;Samples;Min_cycle;Max_cycle;Signal;HPM_P1;HPM_P2
2021/01/23 00:01:41;;;;;;;1.65;1.55;;;;;;;0.10;100.00;100319.80;1791920;80;21149;-50
2021/01/23 00:04:08;;;;;;;0.65;0.65;;;;;;;0.12;100.00;100314.19;1791606;78;21141;-49
2021/01/23 00:06:36;;;;;;;0.23;0.23;;;;;;;0.17;100.00;100319.74;1791793;80;21166;-50
2021/01/23 00:09:04;;;;;;;0.37;0.37;;;;;;;0.21;100.00;100312.91;1791807;78;21157;-50
2021/01/23 00:11:31;;;;;;;1.05;0.42;;;;;;;0.24;100.00;100314.34;1791786;80;21177;-49
2021/01/23 00:13:59;;;;;;;0.45;0.25;;;;;;;0.27;100.00;100318.75;1791821;78;21122;-50
2021/01/23 00:16:26;;;;;;;0.50;0.50;;;;;;;0.31;100.00;100313.27;1791811;80;21144;-50
2021/01/23 00:18:54;;;;;;;0.00;0.00;;;;;;;0.37;100.00;100324.52;1791809;80;21117;-50
2021/01/23 00:21:21;;;;;;;0.98;0.68;;;;;;;0.42;100.00;100323.34;1791833;78;21194;-50
2021/01/23 00:23:49;;;;;;;0.00;0.00;;;;;;;0.47;100.00;100323.20;1791751;80;21114;-50
2021/01/23 00:26:16;;;;;;;0.47;0.47;;;;;;;0.51;100.00;100327.11;1791866;78;21125;-50
2021/01/23 00:28:43;;;;;;;0.05;0.05;;;;;;;0.56;100.00;100324.59;1791726;80;21149;-50
2021/01/23 00:31:11;;;;;;;0.10;0.10;;;;;;;0.58;100.00;100323.88;1791775;78;21109;-50
2021/01/23 00:33:38;;;;;;;0.10;0.10;;;;;;;0.61;100.00;100332.84;1736293;80;21141;-50
2021/01/23 00:36:06;;;;;;;0.23;0.23;;;;;;;0.63;100.00;100321.35;1791841;78;20986;-50
2021/01/23 00:38:34;;;;;;;1.05;0.75;;;;;;;0.65;100.00;100320.62;1791672;80;22010;-50
2021/01/23 00:41:01;;;;;;;0.50;0.50;;;;;;;0.66;100.00;100318.22;1791703;78;21142;-50
2021/01/23 00:43:29;;;;;;;1.15;0.45;;;;;;;0.67;100.00;100322.58;1791802;80;21141;-50
2021/01/23 00:45:56;;;;;;;0.13;0.13;;;;;;;0.71;100.00;100310.84;1791860;78;21149;-50
2021/01/23 00:48:23;;;;;;;0.68;0.68;;;;;;;0.74;100.00;100311.25;1791807;80;21161;-51
2021/01/23 00:50:51;;;;;;;0.20;0.20;;;;;;;0.75;100.00;100321.48;1791697;78;21126;-51
2021/01/23 00:53:18;;;;;;;0.30;0.30;;;;;;;0.76;100.00;100321.77;1791772;80;21497;-50
2021/01/23 00:55:47;;;;;;;0.60;0.60;;;;;;;0.79;100.00;100322.18;1767149;80;21552;-50
2021/01/23 00:58:15;;;;;;;0.05;0.05;;;;;;;0.85;100.00;100321.82;1760959;80;21642;-51
2021/01/23 01:00:42;;;;;;;0.10;0.10;;;;;;;0.89;100.00;100324.88;1767146;80;21831;-51
2021/01/23 01:03:09;;;;;;;0.05;0.05;;;;;;;0.91;100.00;100324.15;1791765;80;21101;-51
2021/01/23 01:05:39;;;;;;;2.65;0.57;;;;;;;0.93;100.00;100325.58;1791385;78;21131;-51
2021/01/23 01:08:06;;;;;;;1.05;0.98;;;;;;;0.95;100.00;100317.30;1791644;80;21077;-51
2021/01/23 01:10:34;;;;;;;0.20;0.20;;;;;;;0.95;100.00;100318.64;1791782;78;21174;-51
2021/01/23 01:13:03;;;;;;;0.45;0.40;;;;;;;0.95;100.00;100320.80;1791238;79;21130;-51
2021/01/23 01:15:30;;;;;;;0.10;0.10;;;;;;;0.97;100.00;100315.22;1791645;78;21110;-51
2021/01/23 01:17:57;;;;;;;0.28;0.28;;;;;;;0.99;100.00;100315.30;1792000;80;21114;-51
2021/01/23 01:20:25;;;;;;;0.75;0.70;;;;;;;1.00;100.00;100310.73;1792062;78;21114;-50
2021/01/23 01:22:53;;;;;;;0.10;0.10;;;;;;;1.00;100.00;100314.77;1791813;80;21149;-50
2021/01/23 01:25:20;;;;;;;0.08;0.08;;;;;;;1.00;100.00;100302.13;1791757;78;21394;-51
2021/01/23 01:27:48;;;;;;;1.75;0.88;;;;;;;1.03;100.00;100306.25;1791900;80;21470;-51
2021/01/23 01:30:17;;;;;;;0.10;0.10;;;;;;;1.06;100.00;100304.45;1791685;78;21118;-51
2021/01/23 01:32:44;;;;;;;0.20;0.20;;;;;;;1.07;100.00;100298.05;1767133;80;21145;-51
2021/01/23 01:35:14;;;;;;;2.65;0.40;;;;;;;1.06;100.00;100295.04;1791748;78;21177;-51
2021/01/23 01:37:43;;;;;;;1.40;0.55;;;;;;;1.08;100.00;100301.03;1791808;80;21193;-51
2021/01/23 01:40:11;;;;;;;1.67;1.05;;;;;;;1.12;100.00;100302.78;1791761;78;21449;-51
2021/01/23 01:42:38;;;;;;;0.72;0.72;;;;;;;1.15;100.00;100307.70;1791873;80;21111;-51
2021/01/23 01:45:07;;;;;;;1.07;0.90;;;;;;;1.16;100.00;100297.23;1791770;78;21114;-51
2021/01/23 01:47:35;;;;;;;0.10;0.10;;;;;;;1.15;100.00;100292.38;1791253;79;21181;-52
2021/01/23 01:50:04;;;;;;;0.20;0.20;;;;;;;1.17;100.00;100297.02;1790965;78;21137;-51
2021/01/23 01:52:33;;;;;;;0.45;0.45;;;;;;;1.16;100.00;100285.94;1790997;80;21126;-51
2021/01/23 01:55:02;;;;;;;0.88;0.88;;;;;;;1.16;100.00;100281.90;1790900;78;21154;-51
2021/01/23 01:57:30;;;;;;;0.55;0.55;;;;;;;1.16;100.00;100278.39;1791123;80;21090;-51
2021/01/23 01:59:57;;;;;;;0.42;0.42;;;;;;;1.17;100.00;100275.49;1791147;78;21105;-51
2021/01/23 02:03:08;;;;;;;0.47;0.47;;;;;;;1.20;100.00;100275.56;1791090;80;21118;-55
2021/01/23 02:05:41;;;;;;;0.00;0.00;;;;;;;1.19;100.00;100273.41;1790900;78;21074;-51
2021/01/23 02:08:44;;;;;;;0.30;0.30;;;;;;;1.18;100.00;100282.51;1791222;80;21448;-51
2021/01/23 02:11:24;;;;;;;;;;;;;;;1.22;100.00;100294.48;1793832;78;21118;-51
2021/01/23 02:13:54;;;;;;;1.02;1.02;;;;;;;1.24;100.00;100288.36;1791314;80;21047;-51
2021/01/23 02:16:26;;;;;;;0.60;0.40;;;;;;;1.24;100.00;100289.71;1791191;78;21658;-51
2021/01/23 02:19:12;;;;;;;0.28;0.23;;;;;;;1.21;100.00;100284.78;1791348;80;21130;-51
2021/01/23 02:22:01;;;;;;;1.00;0.45;;;;;;;1.23;100.00;100284.01;1791034;80;21103;-51
2021/01/23 02:24:29;;;;;;;0.10;0.10;;;;;;;1.24;100.00;100282.98;1737521;80;21141;-51
2021/01/23 02:27:25;;;;;;;0.72;0.57;;;;;;;1.23;100.00;100276.46;1791038;80;21596;-51
2021/01/23 02:30:11;;;;;;;0.00;0.00;;;;;;;1.24;100.00;100282.16;1790667;78;21632;-51
2021/01/23 02:32:39;;;;;;;0.85;0.85;;;;;;;1.26;100.00;100284.94;1791158;80;21110;-51
2021/01/23 02:35:10;;;;;;;0.25;0.25;;;;;;;1.26;100.00;100275.52;1791134;78;21110;-51
2021/01/23 02:37:38;;;;;;;0.47;0.47;;;;;;;1.28;100.00;100275.27;1791179;80;21130;-51
2021/01/23 02:40:07;;;;;;;0.13;0.13;;;;;;;1.31;100.00;100278.04;1791306;78;21561;-51
2021/01/23 02:42:35;;;;;;;0.10;0.10;;;;;;;1.31;100.00;100274.00;1791059;80;21144;-51
2021/01/23 02:45:10;;;;;;;0.95;0.23;;;;;;;1.32;100.00;100287.78;1791060;78;21161;-51
2021/01/23 02:47:38;;;;;;;0.28;0.28;;;;;;;1.31;100.00;100283.42;1792710;79;21134;-51
2021/01/23 02:50:07;;;;;;;0.28;0.28;;;;;;;1.32;100.00;100278.36;1794812;78;21465;-51
2021/01/23 02:52:40;;;;;;;0.10;0.10;;;;;;;1.34;100.00;100281.66;1794682;79;21138;-52
2021/01/23 02:55:10;;;;;;;0.10;0.05;;;;;;;1.34;100.00;100279.78;1794601;78;21133;-51
2021/01/23 02:57:39;;;;;;;0.08;0.08;;;;;;;1.35;100.00;100285.98;1794718;79;21166;-51
2021/01/23 03:00:10;;;;;;;0.23;0.23;;;;;;;1.36;100.00;100288.96;1794707;78;21169;-52
2021/01/23 03:02:45;;;;;;;0.40;0.40;;;;;;;1.37;100.00;100287.94;1770827;79;21123;-51
2021/01/23 03:05:13;;;;;;;0.30;0.30;;;;;;;1.37;100.00;100278.52;1771536;79;21130;-51
2021/01/23 03:07:41;;;;;;;0.20;0.20;;;;;;;1.36;100.00;100282.23;1794638;79;21169;-51
2021/01/23 03:10:10;;;;;;;0.00;0.00;;;;;;;1.36;100.00;100271.47;1794673;78;21600;-51
2021/01/23 03:12:38;;;;;;;2.62;0.75;;;;;;;1.38;100.00;100284.19;1794697;79;21514;-51
2021/01/23 03:15:06;;;;;;;0.28;0.28;;;;;;;1.36;100.00;100278.19;1794729;78;21141;-52
2021/01/23 03:17:34;;;;;;;0.10;0.10;;;;;;;1.37;100.00;100278.52;1794873;79;21122;-51
2021/01/23 03:20:02;;;;;;;0.55;0.47;;;;;;;1.39;100.00;100287.20;1794607;78;21141;-51
2021/01/23 03:22:30;;;;;;;0.30;0.30;;;;;;;1.40;100.00;100286.13;1794836;79;21148;-52
2021/01/23 03:24:57;;;;;;;0.55;0.55;;;;;;;1.41;100.00;100300.73;1794623;78;21110;-51
2021/01/23 03:27:24;;;;;;;0.70;0.70;;;;;;;1.41;100.00;100300.73;1794694;79;21153;-51
2021/01/23 03:29:52;;;;;;;0.65;0.65;;;;;;;1.43;100.00;100307.22;1759548;81;21485;-52
2021/01/23 03:32:19;;;;;;;0.20;0.20;;;;;;;1.45;100.00;100311.87;1740487;82;21137;-51
2021/01/23 03:34:47;;;;;;;0.40;0.40;;;;;;;1.44;100.00;100313.75;1727758;81;21699;-51
2021/01/23 03:37:14;;;;;;;2.27;0.78;;;;;;;1.45;100.00;100311.87;1740505;82;21156;-52
2021/01/23 03:39:42;;;;;;;0.60;0.60;;;;;;;1.46;100.00;100302.77;1759593;80;21151;-51
2021/01/23 03:42:09;;;;;;;0.10;0.10;;;;;;;1.44;100.00;100299.46;1759646;81;22268;-51
2021/01/23 03:44:36;;;;;;;1.27;0.65;;;;;;;1.44;100.00;100290.04;1759427;80;21588;-51
2021/01/23 03:47:04;;;;;;;0.00;0.00;;;;;;;1.43;100.00;100291.07;1757355;81;21154;-51
2021/01/23 03:49:31;;;;;;;0.40;0.40;;;;;;;1.43;100.00;100282.46;1732603;81;21117;-51
2021/01/23 03:51:58;;;;;;;0.28;0.28;;;;;;;1.45;100.00;100287.63;1732701;82;21959;-51
2021/01/23 03:54:26;;;;;;;0.28;0.28;;;;;;;1.45;100.00;100294.37;1732692;81;21157;-51
2021/01/23 03:56:53;;;;;;;0.10;0.10;;;;;;;1.44;100.00;100297.59;1732609;82;21145;-51
2021/01/23 03:59:20;;;;;;;13.30;1.67;;;;;;;1.45;100.00;100295.72;1732688;81;21206;-52
2021/01/23 04:01:48;;;;;;;1.00;0.85;;;;;;;1.45;100.00;100285.76;1732673;82;21492;-51
2021/01/23 04:04:15;;;;;;;0.40;0.40;;;;;;;1.44;100.00;100284.66;1732623;81;21102;-51
2021/01/23 04:06:43;;;;;;;0.20;0.20;;;;;;;1.43;100.00;100284.34;1732665;82;21168;-51
2021/01/23 04:09:11;;;;;;;0.65;0.42;;;;;;;1.43;100.00;100279.77;1732707;81;21614;-52
2021/01/23 04:11:39;;;;;;;0.53;0.53;;;;;;;1.43;100.00;100269.00;1732741;82;21153;-51
2021/01/23 04:14:06;;;;;;;0.35;0.35;;;;;;;1.45;100.00;100276.86;1732560;81;21114;-51
2021/01/23 04:16:33;;;;;;;0.00;0.00;;;;;;;1.44;100.00;100285.47;1732675;82;21141;-51
2021/01/23 04:19:01;;;;;;;0.00;0.00;;;;;;;1.43;100.00;100277.08;1732662;81;21185;-51
2021/01/23 04:21:29;;;;;;;0.00;0.00;;;;;;;1.44;100.00;100269.84;1732569;82;21313;-51
2021/01/23 04:23:58;;;;;;;0.90;0.20;;;;;;;1.45;100.00;100268.78;1732719;82;21175;-51
2021/01/23 04:26:25;;;;;;;6.33;0.55;;;;;;;1.44;100.00;100261.77;1732632;82;21154;-51
2021/01/23 04:28:52;;;;;;;1.00;0.98;;;;;;;1.46;100.00;100267.76;1732686;82;21130;-52
2021/01/23 04:31:20;;;;;;;0.95;0.95;;;;;;;1.48;100.00;100272.38;1732609;81;21177;-52
2021/01/23 04:33:47;;;;;;;0.28;0.28;;;;;;;1.49;100.00;100278.07;1732756;82;21138;-52
2021/01/23 04:36:14;;;;;;;0.47;0.42;;;;;;;1.51;100.00;100277.33;1732660;81;21162;-51
2021/01/23 04:38:42;;;;;;;0.17;0.17;;;;;;;1.50;100.00;100270.28;1732605;82;21130;-51
2021/01/23 04:41:09;;;;;;;0.33;0.33;;;;;;;1.51;100.00;100275.98;1732674;81;21110;-51
2021/01/23 04:43:37;;;;;;;0.40;0.40;;;;;;;1.53;100.00;100278.44;1732632;82;21460;-51
2021/01/23 04:46:04;;;;;;;0.10;0.10;;;;;;;1.53;100.00;100277.91;1732524;81;21142;-51
2021/01/23 04:48:32;;;;;;;0.10;0.10;;;;;;;1.53;100.00;100272.52;1718470;81;21512;-51
2021/01/23 04:50:59;;;;;;;0.25;0.15;;;;;;;1.55;100.00;100270.43;1759354;80;21427;-51
2021/01/23 04:53:26;;;;;;;0.00;0.00;;;;;;;1.56;100.00;100264.02;1759421;81;21609;-51
2021/01/23 04:55:54;;;;;;;0.25;0.25;;;;;;;1.56;100.00;100262.67;1759442;80;21199;-51
2021/01/23 04:58:22;;;;;;;0.47;0.47;;;;;;;1.57;100.00;100264.30;1759346;81;21201;-51
2021/01/23 05:00:50;;;;;;;0.70;0.42;;;;;;;1.58;100.00;100261.89;1759432;80;21155;-51
2021/01/23 05:03:17;;;;;;;6.30;1.12;;;;;;;1.59;100.00;100262.21;1759503;81;21126;-51
2021/01/23 05:06:07;;;;;;;0.55;0.55;;;;;;;1.60;100.00;100257.64;1759451;80;21127;-52
2021/01/23 05:08:36;;;;;;;0.20;0.20;;;;;;;1.58;100.00;100271.85;1759607;81;21446;-51
2021/01/23 05:11:04;;;;;;;0.42;0.40;;;;;;;1.62;100.00;100298.64;1759476;80;21462;-52
2021/01/23 05:13:32;;;;;;;0.42;0.42;;;;;;;1.65;100.00;100293.63;1759468;81;21581;-52
2021/01/23 05:15:59;;;;;;;0.20;0.20;;;;;;;1.66;100.00;100287.20;1759258;80;21112;-52
2021/01/23 05:18:26;;;;;;;0.08;0.08;;;;;;;1.65;100.00;100284.19;1759431;81;21158;-52
2021/01/23 05:20:54;;;;;;;0.00;0.00;;;;;;;1.67;100.00;100293.41;1759340;80;21146;-51
2021/01/23 05:23:28;;;;;;;0.23;0.23;;;;;;;1.69;100.00;100292.13;1759389;81;21474;-51
2021/01/23 05:26:05;;;;;;;3.55;0.45;;;;;;;1.67;100.00;100299.61;1709918;81;21461;-51
2021/01/23 05:28:34;;;;;;;0.10;0.10;;;;;;;1.66;100.00;100299.33;1759468;81;21134;-51
2021/01/23 05:31:04;;;;;;;0.93;0.75;;;;;;;1.69;100.00;100309.64;1759461;80;21130;-52
2021/01/23 05:33:34;;;;;;;4.37;0.60;;;;;;;1.69;100.00;100306.95;1757162;81;21162;-51
2021/01/23 05:36:06;;;;;;;3.20;0.65;;;;;;;1.69;100.00;100298.88;1759324;80;21115;-51
2021/01/23 05:38:37;;;;;;;0.10;0.10;;;;;;;1.70;100.00;100296.46;1759421;81;21137;-51
2021/01/23 05:41:10;;;;;;;0.13;0.13;;;;;;;1.74;100.00;100297.38;1759425;80;21150;-51
2021/01/23 05:43:51;;;;;;;0.10;0.10;;;;;;;1.78;100.00;100306.14;1757219;80;37773;-51
2021/01/23 05:46:31;;;;;;;0.68;0.37;;;;;;;1.81;100.00;100315.64;1730787;81;21128;-51
2021/01/23 05:48:59;;;;;;;1.02;0.62;;;;;;;1.82;100.00;100319.97;1722373;82;21691;-51
2021/01/23 05:51:27;;;;;;;0.10;0.10;;;;;;;1.86;100.00;100309.05;1753265;81;21137;-52
2021/01/23 05:53:54;;;;;;;0.28;0.28;;;;;;;1.89;100.00;100315.34;1737429;82;21142;-52
2021/01/23 05:56:23;;;;;;;0.25;0.25;;;;;;;1.88;100.00;100315.02;1737572;82;21134;-51
2021/01/23 05:58:51;;;;;;;0.23;0.23;;;;;;;1.89;100.00;100312.64;1708478;82;21150;-51
2021/01/23 06:01:20;;;;;;;1.10;0.60;;;;;;;1.90;100.00;100307.53;1721092;81;21589;-51
2021/01/23 06:03:51;;;;;;;0.10;0.10;;;;;;;1.90;100.00;100319.66;1680594;84;21532;-51
2021/01/23 06:06:18;;;;;;;0.20;0.20;;;;;;;1.90;100.00;100322.36;1694944;83;21163;-52
2021/01/23 06:08:53;;;;;;;1.00;0.88;;;;;;;1.90;100.00;100315.62;1695241;84;21170;-51
2021/01/23 06:11:33;;;;;;;0.40;0.33;;;;;;;1.93;100.00;100315.19;1694902;83;21158;-51
2021/01/23 06:14:01;;;;;;;0.10;0.10;;;;;;;1.93;100.00;100317.89;1692289;83;21174;-51
2021/01/23 06:16:36;;;;;;;0.42;0.42;;;;;;;1.93;100.00;100313.84;1694896;84;21163;-51
2021/01/23 06:19:13;;;;;;;0.47;0.30;;;;;;;1.93;100.00;100304.41;1706152;83;21577;-51
2021/01/23 06:21:49;;;;;;;0.35;0.35;;;;;;;1.93;100.00;100295.80;1732101;82;21130;-51
2021/01/23 06:24:17;;;;;;;0.90;0.42;;;;;;;1.93;100.00;100297.67;1732080;82;21113;-51
2021/01/23 06:26:59;;;;;;;0.00;0.00;;;;;;;1.93;100.00;100303.06;1731904;82;21175;-51
2021/01/23 06:29:40;;;;;;;0.10;0.10;;;;;;;1.93;100.00;100301.72;1732058;82;21222;-51
2021/01/23 06:32:19;;;;;;;0.15;0.15;;;;;;;1.96;100.00;100308.53;1732000;82;21127;-51
2021/01/23 06:34:58;;;;;;;0.20;0.20;;;;;;;1.98;100.00;100315.34;1732540;81;21131;-51
2021/01/23 06:37:31;;;;;;;2.85;0.55;;;;;;;1.99;100.00;100317.50;1731966;82;21180;-51
2021/01/23 06:40:09;;;;;;;0.13;0.13;;;;;;;1.99;100.00;100325.05;1734153;82;21205;-51
2021/01/23 06:42:47;;;;;;;0.62;0.62;;;;;;;2.01;100.00;100320.27;1737723;82;21462;-51
2021/01/23 06:45:25;;;;;;;0.40;0.40;;;;;;;2.02;100.00;100320.55;1737592;81;21153;-52
2021/01/23 06:47:57;;;;;;;0.20;0.20;;;;;;;2.04;100.00;100317.64;1731658;82;21207;-51
2021/01/23 06:50:32;;;;;;;;;;;;;;;2.04;100.00;100315.77;1734260;81;21145;-51
2021/01/23 06:53:03;;;;;;;0.15;0.15;;;;;;;2.07;100.00;100317.18;1731945;82;20401;-51
2021/01/23 06:55:46;;;;;;;0.57;0.57;;;;;;;2.06;100.00;100315.02;1732061;81;21177;-51
2021/01/23 06:58:28;;;;;;;0.53;0.53;;;;;;;2.07;100.00;100315.84;1732197;82;21585;-50
2021/01/23 07:00:57;;;;;;;0.45;0.45;;;;;;;2.06;100.00;100308.81;1730876;81;21181;-51
2021/01/23 07:03:29;;;;;;;0.42;0.40;;;;;;;2.10;100.00;100311.33;1732280;81;21218;-51
2021/01/23 07:06:00;;;;;;;0.30;0.30;;;;;;;2.11;100.00;100311.11;1732281;81;27687;-51
2021/01/23 07:08:34;;;;;;;0.08;0.08;;;;;;;2.17;100.00;100311.25;1732247;82;21118;-51
2021/01/23 07:11:14;;;;;;;0.13;0.13;;;;;;;2.20;100.00;100312.14;1731685;82;21165;-51
2021/01/23 07:14:06;;;;;;;0.85;0.85;;;;;;;2.25;100.00;100319.02;1730659;82;21142;-51
2021/01/23 07:16:41;;;;;;;0.33;0.33;;;;;;;2.27;100.00;100320.44;1732012;82;21154;-51
2021/01/23 07:19:09;;;;;;;0.47;0.45;;;;;;;2.31;100.00;100328.91;1727163;82;21183;-51
2021/01/23 07:21:41;;;;;;;1.10;0.60;;;;;;;2.35;100.00;100325.53;1732092;82;21176;-51
2021/01/23 07:24:09;;;;;;;0.78;0.50;;;;;;;2.41;100.00;100326.48;1732243;82;21134;-51
2021/01/23 07:26:38;;;;;;;0.10;0.10;;;;;;;2.47;100.00;100322.05;1732752;81;21182;-52
2021/01/23 07:29:05;;;;;;;0.15;0.15;;;;;;;2.48;100.00;100319.13;1710210;82;21597;-51
2021/01/23 07:31:33;;;;;;;0.62;0.40;;;;;;;2.49;100.00;100320.77;1688112;82;21191;-51
2021/01/23 07:34:10;;;;;;;0.25;0.25;;;;;;;2.53;100.00;100327.89;1732028;82;21498;-51
2021/01/23 07:36:41;;;;;;;0.10;0.10;;;;;;;2.54;100.00;100325.47;1731716;82;21131;-51
2021/01/23 07:39:15;;;;;;;0.20;0.20;;;;;;;2.54;100.00;100318.20;1741239;80;21150;-51
2021/01/23 07:41:57;;;;;;;1.20;1.10;;;;;;;2.56;100.00;100310.70;1732818;81;21494;-52
2021/01/23 07:44:24;;;;;;;0.47;0.47;;;;;;;2.62;100.00;100312.19;1750301;80;21588;-51
2021/01/23 07:46:52;;;;;;;0.50;0.50;;;;;;;2.63;100.00;100299.82;1731100;81;21437;-50
2021/01/23 07:49:23;;;;;;;0.85;0.85;;;;;;;2.66;100.00;100305.28;1754254;81;21240;-51
2021/01/23 07:52:09;;;;;;;0.20;0.20;;;;;;;2.70;100.00;100298.38;1759218;81;21122;-51
2021/01/23 07:54:51;;;;;;;1.40;1.30;;;;;;;2.72;100.00;100298.95;1758968;81;21134;-51
2021/01/23 07:57:19;;;;;;;1.15;0.45;;;;;;;2.74;100.00;100299.02;1756969;80;21162;-51
2021/01/23 07:59:48;;;;;;;0.85;0.85;;;;;;;2.75;100.00;100299.33;1750090;81;21410;-51
2021/01/23 08:02:16;;;;;;;0.00;0.00;;;;;;;2.79;100.00;100299.67;1759053;81;21130;-51
2021/01/23 08:04:54;;;;;;;0.40;0.40;;;;;;;2.82;100.00;100294.34;1758969;81;21142;-51
2021/01/23 08:07:31;;;;;;;0.60;0.45;;;;;;;2.85;100.00;100296.59;1759099;81;21589;-51
2021/01/23 08:10:18;;;;;;;0.42;0.42;;;;;;;2.85;100.00;100294.72;1758888;81;21166;-51
2021/01/23 08:12:59;;;;;;;3.90;1.10;;;;;;;2.89;100.00;100299.11;1758798;81;21130;-51
2021/01/23 08:15:28;;;;;;;0.00;0.00;;;;;;;2.93;100.00;100301.64;1758947;81;21134;-51
2021/01/23 08:17:56;;;;;;;0.68;0.62;;;;;;;2.96;100.00;100307.39;1757259;81;21142;-52
2021/01/23 08:20:38;;;;;;;0.90;0.90;;;;;;;3.00;100.00;100305.88;1759174;81;21505;-51
2021/01/23 08:23:10;;;;;;;0.28;0.28;;;;;;;3.01;100.00;100305.34;1746113;81;21158;-51
2021/01/23 08:25:52;;;;;;;1.32;0.40;;;;;;;3.05;100.00;100307.06;1736048;82;21134;-51
2021/01/23 08:28:42;;;;;;;;;;;;;;;3.04;100.00;100303.52;1742763;82;21664;-51
2021/01/23 08:31:13;;;;;;;0.45;0.23;;;;;;;3.05;100.00;100297.08;1740214;82;20264;-50
2021/01/23 08:33:42;;;;;;;0.28;0.25;;;;;;;3.08;100.00;100303.89;1703773;82;21133;-51
2021/01/23 08:36:12;;;;;;;1.52;1.00;;;;;;;3.13;100.00;100299.42;1739906;81;21596;-51
2021/01/23 08:38:41;;;;;;;0.00;0.00;;;;;;;3.16;100.00;100293.55;1740245;82;21413;-51
2021/01/23 08:41:08;;;;;;;1.00;1.00;;;;;;;3.19;100.00;100292.27;1731533;81;21133;-51
2021/01/23 08:43:36;;;;;;;0.20;0.20;;;;;;;3.22;100.00;100288.58;1758934;81;21142;-51
2021/01/23 08:46:03;;;;;;;0.40;0.40;;;;;;;3.28;100.00;100293.56;1758951;80;21158;-51
2021/01/23 08:48:31;;;;;;;0.30;0.30;;;;;;;3.33;100.00;100288.81;1759135;81;21704;-51
2021/01/23 08:50:59;;;;;;;0.03;0.03;;;;;;;3.34;100.00;100285.88;1732642;81;21166;-52
2021/01/23 08:53:26;;;;;;;0.47;0.47;;;;;;;3.35;100.00;100284.81;1748853;81;21150;-50
2021/01/23 08:55:54;;;;;;;1.27;0.55;;;;;;;3.37;100.00;100288.11;1750151;81;21149;-51
2021/01/23 08:58:23;;;;;;;1.92;1.82;;;;;;;3.38;100.00;100282.98;1721604;81;21146;-51
2021/01/23 09:00:51;;;;;;;2.55;0.80;;;;;;;3.38;100.00;100280.28;1750757;80;21111;-52
2021/01/23 09:03:19;;;;;;;1.00;1.00;;;;;;;3.39;100.00;100281.95;1750787;81;21570;-51
2021/01/23 09:05:46;;;;;;;1.57;0.82;;;;;;;3.43;100.00;100281.75;1750623;81;21521;-51
2021/01/23 09:08:14;;;;;;;9.18;3.42;;;;;;;3.50;100.00;100283.52;1745562;81;21182;-51
2021/01/23 09:10:45;;;;;;;7.50;4.75;;;;;;;3.53;100.00;100281.69;1743350;81;21147;-51
2021/01/23 09:13:13;;;;;;;5.37;4.33;;;;;;;3.56;100.00;100281.20;1694756;84;21274;-51
2021/01/23 09:15:40;;;;;;;3.33;2.65;;;;;;;3.57;100.00;100282.87;1702832;82;21130;-51
2021/01/23 09:18:08;;;;;;;6.08;4.05;;;;;;;3.60;100.00;100279.69;1704564;82;21170;-51
2021/01/23 09:20:35;;;;;;;6.10;3.67;;;;;;;3.64;100.00;100283.56;1732076;81;21127;-51
2021/01/23 09:23:03;;;;;;;2.35;2.25;;;;;;;3.64;100.00;100278.16;1732272;82;21130;-51
2021/01/23 09:25:31;;;;;;;10.95;4.22;;;;;;;3.64;100.00;100278.16;1731718;81;21102;-51
2021/01/23 09:27:58;;;;;;;2.33;1.92;;;;;;;3.63;100.00;100271.09;1732202;82;21648;-51
2021/01/23 09:30:26;;;;;;;1.87;1.02;;;;;;;3.60;100.00;100272.92;1732306;81;21508;-52
2021/01/23 09:32:53;;;;;;;3.50;1.85;;;;;;;3.62;100.00;100278.92;1732752;82;21134;-51
2021/01/23 09:35:21;;;;;;;1.77;1.42;;;;;;;3.64;100.00;100282.21;1732439;82;21146;-52
2021/01/23 09:37:48;;;;;;;3.75;0.80;;;;;;;3.66;100.00;100284.16;1732507;82;21569;-52
2021/01/23 09:40:17;;;;;;;0.70;0.70;;;;;;;3.70;100.00;100279.08;1732224;81;21124;-51
2021/01/23 09:42:45;;;;;;;1.10;0.50;;;;;;;3.76;100.00;100278.11;1732634;82;21134;-51
2021/01/23 09:45:14;;;;;;;2.62;1.17;;;;;;;3.81;100.00;100280.41;1719127;81;21626;-51
2021/01/23 09:47:42;;;;;;;2.37;1.85;;;;;;;3.83;100.00;100282.35;1723615;82;21189;-50
2021/01/23 09:50:11;;;;;;;1.05;1.00;;;;;;;3.84;100.00;100277.22;1731379;81;21165;-51
2021/01/23 09:52:38;;;;;;;0.50;0.50;;;;;;;3.84;100.00;100277.77;1731849;82;22002;-51
2021/01/23 09:55:07;;;;;;;2.08;1.45;;;;;;;3.84;100.00;100289.39;1731556;81;21385;-52
2021/01/23 09:57:35;;;;;;;1.60;1.50;;;;;;;3.87;100.00;100295.66;1724716;82;21208;-51
2021/01/23 10:00:06;;;;;;;1.17;0.62;;;;;;;3.89;100.00;100280.56;1720960;81;21703;-51
2021/01/23 10:02:36;;;;;;;;;;;;;;;3.96;100.00;100270.98;1734208;82;21173;-52
2021/01/23 10:05:05;;;;;;;0.37;0.37;;;;;;;3.97;99.93;100266.66;1731911;81;20454;-51
2021/01/23 10:07:32;;;;;;;2.10;1.70;;;;;;;3.98;99.78;100270.18;1732216;82;21160;-51
2021/01/23 10:10:00;;;;;;;1.62;1.37;;;;;;;4.00;99.53;100272.94;1732211;81;21130;-51
2021/01/23 10:12:31;;;;;;;0.62;0.62;;;;;;;4.03;99.32;100272.98;1711011;82;21575;-52
2021/01/23 10:14:58;;;;;;;0.57;0.53;;;;;;;4.02;99.03;100274.87;1730925;82;21014;-51
2021/01/23 10:17:26;;;;;;;2.95;2.58;;;;;;;4.03;98.85;100265.72;1732099;82;21164;-51
2021/01/23 10:19:53;;;;;;;0.78;0.78;;;;;;;4.05;98.75;100267.63;1732232;81;21170;-51
2021/01/23 10:22:21;;;;;;;0.60;0.60;;;;;;;4.12;98.51;100268.84;1732518;82;21122;-51
2021/01/23 10:24:48;;;;;;;1.98;0.82;;;;;;;4.15;98.23;100272.95;1732295;81;21161;-51
2021/01/23 10:27:15;;;;;;;3.35;1.57;;;;;;;4.17;97.95;100270.83;1732175;82;21675;-51
2021/01/23 10:29:43;;;;;;;0.20;0.20;;;;;;;4.15;97.54;100262.95;1723911;82;21165;-51
2021/01/23 10:32:11;;;;;;;0.37;0.37;;;;;;;4.16;97.46;100269.20;1732387;82;21118;-51
2021/01/23 10:34:40;;;;;;;2.30;1.35;;;;;;;4.22;97.39;100270.39;1732058;81;21546;-51
2021/01/23 10:37:07;;;;;;;0.88;0.88;;;;;;;4.31;97.25;100266.78;1732350;82;21169;-51
2021/01/23 10:39:36;;;;;;;2.25;1.85;;;;;;;4.34;96.42;100266.28;1703189;82;21566;-50
2021/01/23 10:42:06;;;;;;;0.45;0.45;;;;;;;4.32;96.14;100265.70;1721879;82;21485;-52
2021/01/23 10:44:39;;;;;;;0.82;0.50;;;;;;;4.29;95.89;100269.72;1731327;82;21122;-51
2021/01/23 10:47:07;;;;;;;1.30;1.20;;;;;;;4.28;95.77;100263.21;1725671;82;20963;-51
2021/01/23 10:49:36;;;;;;;1.65;0.72;;;;;;;4.29;95.56;100261.59;1730717;81;21153;-51
2021/01/23 10:52:04;;;;;;;0.75;0.75;;;;;;;4.31;95.36;100265.42;1746953;81;21160;-51
2021/01/23 10:54:32;;;;;;;1.42;1.32;;;;;;;4.34;95.27;100265.47;1749979;81;21123;-51
2021/01/23 10:56:59;;;;;;;4.62;2.00;;;;;;;4.35;95.19;100258.98;1719431;83;21155;-51
2021/01/23 10:59:26;;;;;;;1.60;1.10;;;;;;;4.38;94.97;100263.94;1724413;83;21153;-50
2021/01/23 11:01:54;;;;;;;2.67;1.95;;;;;;;4.40;94.60;100259.92;1690060;83;21748;-51
2021/01/23 11:04:21;;;;;;;2.25;2.08;;;;;;;4.41;94.60;100256.67;1724142;81;21226;-50
2021/01/23 11:06:49;;;;;;;2.47;0.78;;;;;;;4.42;94.43;100265.06;1732569;81;21150;-50
2021/01/23 11:09:16;;;;;;;0.98;0.98;;;;;;;4.40;94.14;100263.98;1732424;81;21101;-50
2021/01/23 11:11:45;;;;;;;1.07;1.02;;;;;;;4.38;94.07;100259.88;1731914;82;21517;-50
2021/01/23 11:14:12;;;;;;;0.40;0.40;;;;;;;4.39;94.01;100256.09;1732393;81;21161;-49
2021/01/23 11:16:39;;;;;;;0.85;0.75;;;;;;;4.36;93.70;100257.40;1732181;82;21565;-50
2021/01/23 11:19:07;;;;;;;1.62;1.30;;;;;;;4.29;93.57;100258.89;1732012;82;21145;-50
2021/01/23 11:21:35;;;;;;;2.92;1.72;;;;;;;4.24;93.72;100257.45;1732048;82;21138;-50
2021/01/23 11:24:02;;;;;;;4.45;2.22;;;;;;;4.20;93.78;100254.11;1732154;82;21568;-49
2021/01/23 11:26:31;;;;;;;1.07;0.72;;;;;;;4.16;93.78;100252.44;1729832;81;21161;-50
2021/01/23 11:29:00;;;;;;;1.70;1.32;;;;;;;4.16;93.91;100255.68;1732306;82;21205;-49
2021/01/23 11:31:27;;;;;;;1.07;1.05;;;;;;;4.15;93.84;100255.38;1732414;82;21146;-49
2021/01/23 11:33:55;;;;;;;0.30;0.30;;;;;;;4.11;93.85;100257.75;1732427;82;21453;-49
2021/01/23 11:36:23;;;;;;;5.25;1.80;;;;;;;4.09;93.91;100263.92;1727520;82;21114;-50
2021/01/23 11:38:50;;;;;;;2.40;1.30;;;;;;;4.06;93.72;100256.30;1731482;82;21157;-49
2021/01/23 11:41:18;;;;;;;0.70;0.60;;;;;;;4.04;93.72;100251.13;1731701;81;21690;-49